Time;durP1;ratioP1;P1;durP2;ratioP2;P2;SDS_P1;SDS_P2;PMS_P1;PMS_P2;Temp;Humidity;BMP_temperature;BMP_pressure;BME280_temperature;BME280_humidity;BME280_pressure;Samples;Min_cycle;Max_cycle;Signal;HPM_P1;HPM_P2
2021/12/11 00:00:59;;;;;;;1.52;1.40;;;;;;;;;;4991108;28;20114;-85
2021/12/11 00:03:36;;;;;;;3.42;1.35;;;;;;;;;;5004990;28;20045;-88
2021/12/11 00:06:49;;;;;;;1.58;1.30;;;;;;;;;;4998587;28;20472;-85
2021/12/11 00:09:22;;;;;;;1.42;1.17;;;;;;;;;;4982279;28;20043;-85
2021/12/11 00:11:52;;;;;;;4.75;1.67;;;;;;;;;;4976207;28;20027;-85
2021/12/11 00:14:20;;;;;;;3.72;1.67;;;;;;;;;;4984234;28;20065;-87
2021/12/11 00:16:46;;;;;;;7.57;2.20;;;;;;;;;;4978276;28;20495;-87
2021/12/11 00:19:23;;;;;;;5.40;2.03;;;;;;;;;;4975155;28;20010;-88
2021/12/11 00:21:49;;;;;;;1.77;1.63;;;;;;;;;;4975017;28;20049;-88
2021/12/11 00:24:26;;;;;;;1.15;1.05;;;;;;;;;;4981557;28;20026;-84
2021/12/11 00:27:03;;;;;;;2.80;1.75;;;;;;;;;;5002323;28;20018;-87
2021/12/11 00:29:30;;;;;;;4.20;1.77;;;;;;;;;;5002769;28;20022;-88
2021/12/11 00:32:04;;;;;;;1.92;1.63;;;;;;;;;;4981470;28;20034;-87
2021/12/11 00:34:30;;;;;;;4.72;2.42;;;;;;;;;;4991281;28;20058;-88
2021/12/11 00:37:05;;;;;;;5.78;2.50;;;;;;;;;;5000513;28;20116;-85
2021/12/11 00:39:37;;;;;;;12.68;4.40;;;;;;;;;;5007764;28;20026;-84
2021/12/11 00:42:07;;;;;;;6.50;2.72;;;;;;;;;;4989927;28;20038;-88
2021/12/11 00:44:48;;;;;;;26.33;9.00;;;;;;;;;;4978975;28;20022;-87
2021/12/11 00:47:21;;;;;;;30.48;11.75;;;;;;;;;;5001309;28;20026;-88
2021/12/11 00:49:58;;;;;;;11.90;3.63;;;;;;;;;;4978332;28;20041;-88
2021/12/11 00:52:30;;;;;;;13.32;4.43;;;;;;;;;;4996725;28;20080;-88
2021/12/11 00:54:56;;;;;;;12.65;4.63;;;;;;;;;;4979830;28;20023;-88
2021/12/11 00:57:22;;;;;;;21.48;7.43;;;;;;;;;;5003600;28;20084;-88
2021/12/11 00:59:58;;;;;;;51.75;12.63;;;;;;;;;;4995984;28;20134;-84
2021/12/11 01:02:24;;;;;;;34.30;9.70;;;;;;;;;;4999621;28;20037;-89
2021/12/11 01:04:51;;;;;;;62.58;17.05;;;;;;;;;;4994268;28;20030;-89
2021/12/11 01:07:21;;;;;;;54.50;12.88;;;;;;;;;;4985376;28;20387;-85
2021/12/11 01:09:54;;;;;;;48.63;13.75;;;;;;;;;;4990358;28;20439;-85
2021/12/11 01:12:46;;;;;;;73.47;19.70;;;;;;;;;;4999599;28;20025;-85
2021/12/11 01:15:13;;;;;;;;;;;;;;;;;;4998484;28;20022;-86
2021/12/11 01:17:59;;;;;;;48.58;12.00;;;;;;;;;;4974731;28;20371;-84
2021/12/11 01:20:50;;;;;;;36.33;9.10;;;;;;;;;;4996613;28;20045;-86
2021/12/11 01:23:46;;;;;;;14.48;3.90;;;;;;;;;;4970454;28;20048;-84
2021/12/11 01:26:20;;;;;;;37.70;16.50;;;;;;;;;;4983974;28;20021;-87
2021/12/11 01:28:46;;;;;;;28.85;13.65;;;;;;;;;;4999184;28;20038;-86
2021/12/11 01:31:15;;;;;;;6.53;3.53;;;;;;;;;;4996516;28;20026;-88
2021/12/11 01:33:41;;;;;;;3.10;2.10;;;;;;;;;;4980422;28;20026;-88
2021/12/11 01:36:07;;;;;;;3.53;2.30;;;;;;;;;;4996674;28;20044;-88
2021/12/11 01:38:34;;;;;;;1.55;1.45;;;;;;;;;;4995979;28;20023;-88
2021/12/11 01:41:07;;;;;;;2.40;1.85;;;;;;;;;;4996478;28;20038;-85
2021/12/11 01:43:35;;;;;;;2.10;1.90;;;;;;;;;;4983741;28;20022;-85
2021/12/11 01:46:02;;;;;;;2.65;1.90;;;;;;;;;;5000327;28;20495;-85
2021/12/11 01:48:33;;;;;;;1.35;1.15;;;;;;;;;;4995109;28;20025;-87
2021/12/11 01:51:23;;;;;;;1.30;1.20;;;;;;;;;;4990783;28;20137;-87
2021/12/11 01:53:55;;;;;;;2.17;1.60;;;;;;;;;;4998455;28;20034;-87
2021/12/11 01:56:24;;;;;;;1.48;1.38;;;;;;;;;;4995071;28;20023;-86
2021/12/11 01:59:02;;;;;;;1.67;1.58;;;;;;;;;;4976436;28;20053;-85
2021/12/11 02:02:02;;;;;;;1.48;1.38;;;;;;;;;;4985873;28;20026;-86
2021/12/11 02:04:29;;;;;;;1.38;1.27;;;;;;;;;;4981672;28;20033;-86
2021/12/11 02:07:02;;;;;;;1.27;1.17;;;;;;;;;;4980250;28;20030;-83
2021/12/11 02:09:30;;;;;;;;;;;;;;;;;;4994651;28;20034;-84
2021/12/11 02:12:07;;;;;;;1.38;1.27;;;;;;;;;;4989375;28;19913;-85
2021/12/11 02:14:40;;;;;;;3.08;1.70;;;;;;;;;;5003812;28;20040;-85
2021/12/11 02:17:13;;;;;;;3.58;1.95;;;;;;;;;;4995628;28;20094;-86
2021/12/11 02:19:39;;;;;;;2.35;2.15;;;;;;;;;;4991532;28;20135;-87
2021/12/11 02:22:12;;;;;;;1.33;1.20;;;;;;;;;;4989390;28;20031;-85
2021/12/11 02:24:44;;;;;;;2.28;2.05;;;;;;;;;;4972329;28;20444;-86
2021/12/11 02:27:23;;;;;;;1.90;1.60;;;;;;;;;;4996758;28;20010;-86
2021/12/11 02:30:18;;;;;;;3.30;2.38;;;;;;;;;;4969051;28;20030;-86
2021/12/11 02:32:51;;;;;;;3.08;1.90;;;;;;;;;;4971369;28;20018;-86
2021/12/11 02:35:44;;;;;;;2.45;2.17;;;;;;;;;;4991839;28;20021;-86
2021/12/11 02:38:34;;;;;;;2.15;1.92;;;;;;;;;;5000697;28;20540;-84
2021/12/11 02:41:03;;;;;;;2.00;1.90;;;;;;;;;;4985057;28;20080;-84
2021/12/11 02:43:28;;;;;;;4.05;2.40;;;;;;;;;;4995847;28;20562;-86
2021/12/11 02:46:12;;;;;;;2.17;1.95;;;;;;;;;;4980125;28;20030;-84
2021/12/11 02:48:47;;;;;;;2.20;2.00;;;;;;;;;;4989877;28;20543;-86
2021/12/11 02:51:31;;;;;;;3.35;2.60;;;;;;;;;;4969311;28;20034;-86
2021/12/11 02:54:25;;;;;;;3.45;2.67;;;;;;;;;;4975406;28;20700;-85
2021/12/11 02:56:59;;;;;;;2.88;2.58;;;;;;;;;;4979898;28;20039;-85
2021/12/11 02:59:28;;;;;;;2.75;2.30;;;;;;;;;;4980397;28;20614;-86
2021/12/11 03:02:20;;;;;;;3.60;2.53;;;;;;;;;;4983692;28;20031;-86
2021/12/11 03:04:52;;;;;;;4.13;3.33;;;;;;;;;;4982845;28;20487;-85
2021/12/11 03:07:35;;;;;;;5.25;3.70;;;;;;;;;;4985610;28;20501;-86
2021/12/11 03:10:03;;;;;;;5.45;3.47;;;;;;;;;;4996642;28;20093;-86
2021/12/11 03:12:29;;;;;;;9.70;6.22;;;;;;;;;;4992251;28;20026;-86
2021/12/11 03:14:54;;;;;;;4.70;3.28;;;;;;;;;;5000134;28;20398;-85
2021/12/11 03:17:22;;;;;;;3.08;2.72;;;;;;;;;;5005680;28;20464;-84
2021/12/11 03:19:48;;;;;;;2.63;2.20;;;;;;;;;;4993595;28;20031;-86
2021/12/11 03:22:17;;;;;;;3.63;2.75;;;;;;;;;;4992942;28;20357;-85
2021/12/11 03:24:44;;;;;;;3.08;2.65;;;;;;;;;;4993959;28;20488;-84
2021/12/11 03:27:10;;;;;;;2.78;2.53;;;;;;;;;;5003707;28;20063;-84
2021/12/11 03:29:36;;;;;;;3.10;2.58;;;;;;;;;;4980174;28;20026;-83
2021/12/11 03:32:06;;;;;;;3.20;2.83;;;;;;;;;;4990881;28;20117;-84
2021/12/11 03:34:31;;;;;;;3.20;2.78;;;;;;;;;;4989791;28;20023;-85
2021/12/11 03:36:59;;;;;;;3.28;2.55;;;;;;;;;;4989516;28;20098;-85
2021/12/11 03:39:29;;;;;;;5.05;3.25;;;;;;;;;;5005086;28;20105;-84
2021/12/11 03:41:56;;;;;;;5.85;2.97;;;;;;;;;;4977263;28;20048;-83
2021/12/11 03:44:22;;;;;;;3.30;2.78;;;;;;;;;;4996392;28;20022;-84
2021/12/11 03:46:52;;;;;;;7.15;3.40;;;;;;;;;;4999128;28;20047;-86
2021/12/11 03:49:19;;;;;;;4.38;3.65;;;;;;;;;;4993831;28;20415;-84
2021/12/11 03:51:47;;;;;;;3.92;3.33;;;;;;;;;;4986658;28;20411;-84
2021/12/11 03:54:18;;;;;;;4.25;3.63;;;;;;;;;;4986925;28;20034;-84
2021/12/11 03:56:44;;;;;;;4.35;3.70;;;;;;;;;;4993530;28;20030;-84
2021/12/11 03:59:12;;;;;;;4.15;3.65;;;;;;;;;;4995322;28;20030;-84
2021/12/11 04:01:44;;;;;;;4.43;3.60;;;;;;;;;;4992167;28;20166;-84
2021/12/11 04:04:28;;;;;;;4.97;4.03;;;;;;;;;;4990686;28;20061;-87
2021/12/11 04:06:56;;;;;;;6.57;4.10;;;;;;;;;;4994703;28;20538;-84
2021/12/11 04:09:22;;;;;;;4.05;3.50;;;;;;;;;;5002825;28;20483;-83
2021/12/11 04:11:51;;;;;;;6.32;4.55;;;;;;;;;;4974073;28;20113;-83
2021/12/11 04:14:21;;;;;;;5.07;4.38;;;;;;;;;;4987160;28;20024;-84
2021/12/11 04:16:47;;;;;;;7.13;4.97;;;;;;;;;;4974401;28;20015;-87
2021/12/11 04:19:13;;;;;;;6.05;4.80;;;;;;;;;;5000160;28;20085;-87
2021/12/11 04:21:41;;;;;;;5.70;4.57;;;;;;;;;;4993235;28;20030;-87
2021/12/11 04:24:07;;;;;;;6.88;5.05;;;;;;;;;;4993195;28;20113;-84
2021/12/11 04:26:34;;;;;;;7.65;5.03;;;;;;;;;;4966113;23;20042;-84
2021/12/11 04:29:00;;;;;;;8.07;5.68;;;;;;;;;;4952328;28;20024;-85
2021/12/11 04:31:32;;;;;;;7.40;5.38;;;;;;;;;;4946451;28;20031;-84
2021/12/11 04:34:01;;;;;;;;;;;;;;;;;;4924921;29;20066;-83
2021/12/11 04:36:31;;;;;;;8.27;5.43;;;;;;;;;;4949444;29;19915;-83
2021/12/11 04:38:59;;;;;;;8.63;5.70;;;;;;;;;;4955118;28;20039;-84
2021/12/11 04:41:38;;;;;;;7.82;5.72;;;;;;;;;;4954496;28;20031;-85
2021/12/11 04:44:08;;;;;;;8.32;5.95;;;;;;;;;;4949380;29;20054;-82
2021/12/11 04:46:34;;;;;;;7.97;6.07;;;;;;;;;;4951323;29;20027;-83
2021/12/11 04:51:41;;;;;;;11.15;6.45;;;;;;;;;;4957205;28;20031;-85
2021/12/11 05:10:05;;;;;;;7.10;5.68;;;;;;;;;;4944689;28;20035;-85
2021/12/11 05:12:35;;;;;;;7.88;6.05;;;;;;;;;;4954562;28;20050;-85
2021/12/11 05:15:07;;;;;;;12.68;6.65;;;;;;;;;;4941544;28;20050;-85
2021/12/11 05:17:33;;;;;;;8.27;6.05;;;;;;;;;;4962577;28;20023;-85
2021/12/11 05:19:58;;;;;;;7.70;5.28;;;;;;;;;;4955128;29;20033;-85
2021/12/11 05:22:26;;;;;;;6.43;4.28;;;;;;;;;;4949963;28;20027;-85
2021/12/11 05:24:56;;;;;;;7.90;5.93;;;;;;;;;;4952046;28;20440;-84
2021/12/11 05:27:22;;;;;;;10.25;6.45;;;;;;;;;;4941665;29;20015;-84
2021/12/11 05:29:49;;;;;;;7.75;5.88;;;;;;;;;;4941008;28;20031;-86
2021/12/11 05:32:32;;;;;;;9.80;6.70;;;;;;;;;;4945309;29;20381;-85
2021/12/11 05:34:58;;;;;;;10.10;6.63;;;;;;;;;;4973666;28;20124;-85
2021/12/11 05:37:24;;;;;;;8.52;6.07;;;;;;;;;;4972876;28;20380;-85
2021/12/11 05:39:50;;;;;;;7.53;5.40;;;;;;;;;;4967094;28;20027;-86
2021/12/11 05:42:15;;;;;;;10.38;6.70;;;;;;;;;;4945148;28;20018;-84
2021/12/11 05:44:42;;;;;;;9.80;7.10;;;;;;;;;;4960118;28;20023;-85
2021/12/11 05:47:07;;;;;;;8.10;5.97;;;;;;;;;;4965406;28;20026;-84
2021/12/11 05:49:34;;;;;;;7.60;5.78;;;;;;;;;;4956092;29;20030;-85
2021/12/11 05:52:08;;;;;;;10.25;6.63;;;;;;;;;;4946724;28;20503;-84
2021/12/11 05:54:34;;;;;;;8.25;6.30;;;;;;;;;;4955169;28;20027;-86
2021/12/11 05:57:06;;;;;;;12.32;7.13;;;;;;;;;;4962286;28;20023;-84
2021/12/11 05:59:31;;;;;;;10.50;7.55;;;;;;;;;;4958423;28;20030;-86
2021/12/11 06:02:03;;;;;;;8.82;5.85;;;;;;;;;;4955126;29;20035;-86
2021/12/11 06:05:12;;;;;;;9.45;6.72;;;;;;;;;;4950370;28;20500;-84
2021/12/11 06:08:00;;;;;;;6.55;4.50;;;;;;;;;;4936026;29;20078;-85
2021/12/11 06:17:57;;;;;;;9.77;7.32;;;;;;;;;;4953703;28;20391;-85
2021/12/11 06:20:27;;;;;;;10.55;6.35;;;;;;;;;;4930505;29;20038;-84
2021/12/11 06:22:53;;;;;;;9.90;6.57;;;;;;;;;;4937861;28;20043;-86
2021/12/11 06:25:22;;;;;;;15.38;9.52;;;;;;;;;;4952818;28;20500;-86
2021/12/11 06:27:48;;;;;;;12.27;8.57;;;;;;;;;;4968935;28;20034;-86
2021/12/11 06:30:16;;;;;;;12.52;8.70;;;;;;;;;;4960818;28;20061;-84
2021/12/11 06:32:43;;;;;;;11.57;8.02;;;;;;;;;;4939088;28;20059;-85
2021/12/11 06:35:46;;;;;;;12.95;7.63;;;;;;;;;;4944589;28;20038;-86
2021/12/11 06:38:13;;;;;;;;;;;;;;;;;;4943050;29;20450;-85
2021/12/11 06:40:40;;;;;;;11.38;7.15;;;;;;;;;;4947056;29;19952;-84
2021/12/11 06:43:06;;;;;;;16.13;8.48;;;;;;;;;;4957011;29;20113;-86
2021/12/11 06:45:32;;;;;;;13.95;8.60;;;;;;;;;;4952018;28;20043;-87
2021/12/11 06:47:57;;;;;;;14.20;9.13;;;;;;;;;;4954155;29;20050;-86
2021/12/11 06:50:24;;;;;;;14.98;10.07;;;;;;;;;;4958114;28;20044;-84
2021/12/11 06:52:51;;;;;;;18.85;9.70;;;;;;;;;;4952363;28;20056;-86
2021/12/11 06:55:17;;;;;;;15.15;9.18;;;;;;;;;;4963353;28;20042;-83
2021/12/11 06:57:44;;;;;;;14.95;8.25;;;;;;;;;;4963045;28;20041;-83
2021/12/11 07:00:10;;;;;;;17.38;10.25;;;;;;;;;;4964225;28;20027;-83
2021/12/11 07:02:36;;;;;;;15.73;9.93;;;;;;;;;;4951336;28;20408;-86
2021/12/11 07:05:02;;;;;;;16.58;10.30;;;;;;;;;;4945632;28;20046;-84
2021/12/11 07:07:33;;;;;;;17.48;11.07;;;;;;;;;;4955829;28;20426;-85
2021/12/11 07:09:59;;;;;;;13.55;9.43;;;;;;;;;;4955638;29;20035;-85
2021/12/11 07:12:24;;;;;;;18.52;9.98;;;;;;;;;;4945461;29;20108;-86
2021/12/11 07:14:51;;;;;;;15.20;8.80;;;;;;;;;;4946930;29;20114;-85
2021/12/11 07:17:17;;;;;;;14.13;9.10;;;;;;;;;;4959899;28;20027;-87
2021/12/11 07:19:43;;;;;;;13.90;8.93;;;;;;;;;;4962090;28;20034;-86
2021/12/11 07:22:09;;;;;;;15.32;9.95;;;;;;;;;;4948290;28;20027;-85
2021/12/11 07:24:42;;;;;;;14.75;9.80;;;;;;;;;;4963131;28;20081;-84
2021/12/11 07:27:09;;;;;;;16.80;9.90;;;;;;;;;;4975990;28;20498;-84
2021/12/11 07:29:36;;;;;;;15.68;9.45;;;;;;;;;;4962370;28;20027;-85
2021/12/11 07:32:03;;;;;;;16.02;10.00;;;;;;;;;;4946711;28;20389;-83
2021/12/11 07:34:28;;;;;;;12.45;7.95;;;;;;;;;;4939976;29;20122;-84
2021/12/11 07:36:55;;;;;;;16.63;9.45;;;;;;;;;;4967051;28;20059;-85
2021/12/11 07:39:21;;;;;;;17.85;9.50;;;;;;;;;;4969737;28;20109;-84
2021/12/11 07:41:49;;;;;;;16.05;9.85;;;;;;;;;;4958930;28;20035;-83
2021/12/11 07:44:15;;;;;;;19.27;10.80;;;;;;;;;;4977784;28;20027;-84
2021/12/11 07:46:41;;;;;;;18.95;10.88;;;;;;;;;;4963127;28;20027;-84
2021/12/11 07:49:07;;;;;;;17.13;10.48;;;;;;;;;;4967680;28;20039;-84
2021/12/11 07:51:36;;;;;;;17.15;10.40;;;;;;;;;;4958519;28;20071;-83
2021/12/11 07:54:02;;;;;;;18.33;10.75;;;;;;;;;;4955079;28;20397;-83
2021/12/11 07:56:28;;;;;;;17.67;10.82;;;;;;;;;;4956197;28;20441;-84
2021/12/11 07:58:59;;;;;;;22.00;11.65;;;;;;;;;;4950231;28;20039;-85
2021/12/11 08:01:26;;;;;;;15.63;10.02;;;;;;;;;;4951820;28;20109;-85
2021/12/11 08:03:51;;;;;;;17.63;10.05;;;;;;;;;;4958464;28;20504;-85
2021/12/11 08:06:17;;;;;;;18.33;11.00;;;;;;;;;;4964614;28;20035;-85
2021/12/11 08:08:44;;;;;;;19.75;11.68;;;;;;;;;;4960837;29;20031;-85
2021/12/11 08:11:17;;;;;;;22.23;11.18;;;;;;;;;;4960877;28;20715;-84
2021/12/11 08:13:44;;;;;;;20.15;11.35;;;;;;;;;;4971053;28;20038;-85
2021/12/11 08:16:11;;;;;;;16.48;8.88;;;;;;;;;;4964831;28;20054;-85
2021/12/11 08:18:37;;;;;;;15.55;9.63;;;;;;;;;;4950881;29;20062;-84
2021/12/11 08:21:02;;;;;;;18.70;11.52;;;;;;;;;;4964777;28;20056;-84
2021/12/11 08:23:28;;;;;;;19.90;11.32;;;;;;;;;;4956159;28;20484;-84
2021/12/11 08:25:55;;;;;;;19.92;11.05;;;;;;;;;;4968916;28;20395;-84
2021/12/11 08:28:25;;;;;;;14.38;9.60;;;;;;;;;;4964578;28;20319;-84
2021/12/11 08:30:53;;;;;;;15.18;10.00;;;;;;;;;;4939191;28;20039;-85
2021/12/11 08:33:19;;;;;;;16.38;10.38;;;;;;;;;;4942925;29;20570;-85
2021/12/11 08:35:45;;;;;;;17.67;11.27;;;;;;;;;;4937222;29;20031;-85
2021/12/11 08:38:10;;;;;;;17.25;10.68;;;;;;;;;;4957397;28;20044;-85
2021/12/11 08:40:42;;;;;;;17.15;10.98;;;;;;;;;;4958966;28;20039;-85
2021/12/11 08:43:10;;;;;;;18.30;11.23;;;;;;;;;;4944551;29;21404;-89
2021/12/11 08:45:47;;;;;;;18.50;10.73;;;;;;;;;;4963161;28;20034;-87
2021/12/11 08:48:20;;;;;;;18.80;11.55;;;;;;;;;;4951166;29;20012;-84
2021/12/11 08:50:53;;;;;;;17.55;12.02;;;;;;;;;;4938093;29;20051;-86
2021/12/11 08:53:19;;;;;;;24.45;14.45;;;;;;;;;;4962797;28;20027;-85
2021/12/11 08:55:49;;;;;;;37.85;17.63;;;;;;;;;;4958028;28;20102;-86
2021/12/11 08:58:17;;;;;;;170.23;64.75;;;;;;;;;;4942990;29;20102;-84
2021/12/11 09:00:49;;;;;;;39.88;22.70;;;;;;;;;;4949085;29;20031;-87
2021/12/11 09:03:33;;;;;;;147.70;80.45;;;;;;;;;;4964655;28;20023;-86
2021/12/11 09:06:01;;;;;;;142.85;71.95;;;;;;;;;;4950070;28;20032;-85
2021/12/11 09:08:42;;;;;;;67.55;39.95;;;;;;;;;;4959337;28;20035;-85
2021/12/11 09:11:20;;;;;;;25.80;16.42;;;;;;;;;;4949754;28;20054;-86
2021/12/11 09:13:54;;;;;;;22.58;13.93;;;;;;;;;;4949279;29;20030;-86
2021/12/11 09:16:29;;;;;;;20.60;12.95;;;;;;;;;;4944253;29;20027;-86
2021/12/11 09:19:10;;;;;;;16.17;10.50;;;;;;;;;;4955608;28;20028;-86
2021/12/11 09:21:45;;;;;;;17.45;11.05;;;;;;;;;;4970113;28;20026;-86
2021/12/11 09:24:18;;;;;;;19.52;11.45;;;;;;;;;;4955255;28;20023;-87
2021/12/11 09:27:12;;;;;;;15.80;11.00;;;;;;;;;;4946336;28;20032;-87
2021/12/11 09:29:52;;;;;;;15.57;10.13;;;;;;;;;;4943473;28;20055;-85
2021/12/11 09:32:36;;;;;;;17.50;10.43;;;;;;;;;;4954539;28;20082;-86
2021/12/11 09:35:11;;;;;;;15.38;10.63;;;;;;;;;;4955477;28;20151;-85
2021/12/11 09:37:37;;;;;;;16.77;11.48;;;;;;;;;;4948717;28;20485;-86
2021/12/11 09:40:15;;;;;;;20.05;10.57;;;;;;;;;;4946628;29;20061;-85
2021/12/11 09:42:40;;;;;;;15.13;10.05;;;;;;;;;;4950336;28;20019;-87
2021/12/11 09:45:14;;;;;;;15.70;9.25;;;;;;;;;;4966676;28;20050;-86
2021/12/11 09:47:50;;;;;;;12.20;7.70;;;;;;;;;;4969615;28;20054;-87
2021/12/11 09:50:19;;;;;;;12.88;8.60;;;;;;;;;;4940872;28;20027;-86
2021/12/11 09:52:46;;;;;;;11.65;7.55;;;;;;;;;;4949773;28;20028;-86
2021/12/11 09:55:25;;;;;;;13.18;8.38;;;;;;;;;;4942846;29;20102;-86
2021/12/11 09:57:54;;;;;;;8.75;6.25;;;;;;;;;;4954000;29;20163;-87
2021/12/11 10:00:27;;;;;;;12.20;7.78;;;;;;;;;;4953884;28;20359;-86
2021/12/11 10:02:52;;;;;;;11.77;7.78;;;;;;;;;;4955485;28;20035;-86
2021/12/11 10:05:31;;;;;;;12.20;7.35;;;;;;;;;;4958703;28;20018;-83
2021/12/11 10:10:49;;;;;;;12.85;7.85;;;;;;;;;;4958512;28;20065;-85
2021/12/11 10:13:15;;;;;;;8.85;6.70;;;;;;;;;;4948865;28;20023;-86
2021/12/11 10:15:41;;;;;;;14.00;8.07;;;;;;;;;;4933003;29;20093;-84
2021/12/11 10:18:14;;;;;;;11.70;7.43;;;;;;;;;;4946593;29;20099;-87
2021/12/11 10:20:52;;;;;;;9.15;6.20;;;;;;;;;;4939784;29;20086;-85
2021/12/11 10:23:22;;;;;;;9.38;5.95;;;;;;;;;;4952452;28;20027;-88
2021/12/11 10:25:48;;;;;;;10.60;7.07;;;;;;;;;;4951955;28;20114;-87
2021/12/11 10:28:19;;;;;;;11.00;6.70;;;;;;;;;;4951638;29;20054;-88
2021/12/11 10:30:50;;;;;;;9.20;6.35;;;;;;;;;;4964137;28;20037;-88
2021/12/11 10:33:18;;;;;;;14.05;8.40;;;;;;;;;;4929231;29;20371;-88
2021/12/11 10:35:48;;;;;;;11.35;6.15;;;;;;;;;;4941015;28;20035;-88
2021/12/11 10:38:14;;;;;;;8.27;6.20;;;;;;;;;;4960521;28;20019;-88
2021/12/11 10:40:46;;;;;;;11.38;5.85;;;;;;;;;;4966733;28;20071;-88
2021/12/11 10:43:23;;;;;;;;;;;;;;;;;;4954024;28;20098;-85
2021/12/11 10:45:51;;;;;;;7.05;4.80;;;;;;;;;;4959694;28;19914;-86
2021/12/11 10:48:24;;;;;;;11.13;6.45;;;;;;;;;;4932350;29;20044;-86
2021/12/11 10:51:01;;;;;;;12.35;6.68;;;;;;;;;;4942267;29;20031;-88
2021/12/11 10:53:28;;;;;;;9.55;6.97;;;;;;;;;;4958657;28;20027;-88
2021/12/11 10:55:56;;;;;;;9.02;5.00;;;;;;;;;;4959304;28;20027;-86
2021/12/11 10:58:26;;;;;;;8.75;5.85;;;;;;;;;;4950248;29;20008;-87
2021/12/11 11:00:59;;;;;;;6.82;5.45;;;;;;;;;;4955789;28;20043;-88
2021/12/11 11:03:30;;;;;;;7.60;5.38;;;;;;;;;;4960259;28;20086;-87
2021/12/11 11:05:56;;;;;;;8.60;4.22;;;;;;;;;;4939973;28;20492;-86
2021/12/11 11:08:22;;;;;;;9.68;6.22;;;;;;;;;;4954796;29;20022;-87
2021/12/11 11:10:56;;;;;;;9.40;5.47;;;;;;;;;;4964383;28;20035;-85
2021/12/11 11:13:24;;;;;;;9.48;6.15;;;;;;;;;;4960840;28;20095;-88
2021/12/11 11:15:50;;;;;;;6.38;5.03;;;;;;;;;;4948763;28;20087;-87
2021/12/11 11:18:19;;;;;;;7.88;5.32;;;;;;;;;;4956994;28;20019;-89
2021/12/11 11:20:52;;;;;;;8.23;6.20;;;;;;;;;;4966282;28;20397;-86
2021/12/11 11:23:17;;;;;;;6.50;5.22;;;;;;;;;;4961661;28;20039;-86
2021/12/11 11:25:46;;;;;;;6.78;4.38;;;;;;;;;;4954026;28;20054;-86
2021/12/11 11:28:15;;;;;;;6.50;5.20;;;;;;;;;;4970803;28;20027;-88
2021/12/11 11:30:48;;;;;;;10.90;6.70;;;;;;;;;;4972461;28;20070;-87
2021/12/11 11:33:14;;;;;;;9.77;5.93;;;;;;;;;;4971152;28;20022;-87
2021/12/11 11:35:42;;;;;;;8.80;5.80;;;;;;;;;;4960471;28;20042;-86
2021/12/11 11:38:14;;;;;;;9.48;7.38;;;;;;;;;;4942665;28;20023;-88
2021/12/11 11:40:41;;;;;;;7.60;5.05;;;;;;;;;;4966143;28;20023;-88
2021/12/11 11:43:08;;;;;;;8.88;4.97;;;;;;;;;;4957322;29;20036;-87
2021/12/11 11:45:34;;;;;;;7.88;5.95;;;;;;;;;;4957753;28;20027;-87
2021/12/11 11:47:59;;;;;;;10.00;6.05;;;;;;;;;;4952772;28;20361;-86
2021/12/11 11:50:29;;;;;;;8.98;6.28;;;;;;;;;;4942385;29;20106;-87
2021/12/11 11:52:55;;;;;;;10.02;5.97;;;;;;;;;;4960782;28;20494;-86
2021/12/11 11:55:27;;;;;;;9.95;6.53;;;;;;;;;;4951921;28;20034;-87
2021/12/11 11:57:54;;;;;;;8.23;5.72;;;;;;;;;;4957974;28;20075;-86
2021/12/11 12:00:28;;;;;;;6.85;4.50;;;;;;;;;;4956855;28;20038;-87
2021/12/11 12:02:55;;;;;;;7.00;5.47;;;;;;;;;;4956926;28;20132;-87
2021/12/11 12:05:22;;;;;;;12.25;6.32;;;;;;;;;;4936646;29;20042;-86
2021/12/11 12:07:48;;;;;;;8.35;6.03;;;;;;;;;;4949926;28;20035;-84
2021/12/11 12:10:26;;;;;;;8.20;5.93;;;;;;;;;;4936070;28;20035;-85
2021/12/11 12:12:53;;;;;;;12.02;6.88;;;;;;;;;;4955407;28;20058;-85
2021/12/11 12:15:26;;;;;;;8.27;5.95;;;;;;;;;;4950109;28;20536;-88
2021/12/11 12:17:52;;;;;;;8.73;6.30;;;;;;;;;;4949209;28;20031;-87
2021/12/11 12:20:19;;;;;;;11.40;7.75;;;;;;;;;;4954317;28;20031;-87
2021/12/11 12:22:47;;;;;;;8.60;6.18;;;;;;;;;;4949693;28;20174;-86
2021/12/11 12:25:15;;;;;;;8.57;6.68;;;;;;;;;;4963816;28;20027;-85
2021/12/11 12:27:42;;;;;;;9.65;6.20;;;;;;;;;;4954998;28;20055;-87
2021/12/11 12:30:26;;;;;;;11.85;8.95;;;;;;;;;;4960880;28;20046;-87
2021/12/11 12:32:55;;;;;;;11.07;6.10;;;;;;;;;;4958288;28;20032;-87
2021/12/11 12:35:22;;;;;;;13.27;7.40;;;;;;;;;;4952722;28;20106;-87
2021/12/11 12:37:49;;;;;;;11.52;8.32;;;;;;;;;;4960518;28;20030;-83
2021/12/11 12:40:27;;;;;;;15.60;7.68;;;;;;;;;;4944851;29;20030;-86
2021/12/11 12:42:57;;;;;;;34.15;16.98;;;;;;;;;;4964271;28;20028;-86
2021/12/11 12:45:31;;;;;;;36.22;15.60;;;;;;;;;;4954641;28;20035;-87
2021/12/11 12:48:10;;;;;;;17.85;10.80;;;;;;;;;;4955236;28;20023;-85
2021/12/11 12:50:53;;;;;;;9.38;7.15;;;;;;;;;;4957270;28;20038;-87
2021/12/11 12:53:20;;;;;;;9.32;7.35;;;;;;;;;;4954422;29;20544;-86
2021/12/11 12:55:51;;;;;;;9.05;6.28;;;;;;;;;;4939695;29;20039;-86
2021/12/11 12:58:24;;;;;;;10.57;8.07;;;;;;;;;;4961676;28;20011;-85
2021/12/11 13:01:00;;;;;;;11.27;8.23;;;;;;;;;;4956956;28;20378;-84
2021/12/11 13:03:29;;;;;;;12.18;7.38;;;;;;;;;;4957519;28;20023;-86
2021/12/11 13:06:01;;;;;;;10.27;7.57;;;;;;;;;;4959311;28;20059;-85
2021/12/11 13:08:35;;;;;;;12.68;7.95;;;;;;;;;;4952839;29;20015;-83
2021/12/11 13:11:08;;;;;;;10.52;8.27;;;;;;;;;;4966172;28;20102;-88
2021/12/11 13:13:35;;;;;;;11.07;7.50;;;;;;;;;;4945332;29;20083;-86
2021/12/11 13:16:20;;;;;;;12.98;7.75;;;;;;;;;;4952193;28;20111;-86
2021/12/11 13:18:51;;;;;;;11.90;9.20;;;;;;;;;;4956824;28;20021;-85
2021/12/11 13:21:35;;;;;;;12.13;8.63;;;;;;;;;;4962784;28;20019;-85
2021/12/11 13:24:43;;;;;;;10.13;7.18;;;;;;;;;;4963434;28;20283;-84
2021/12/11 13:27:10;;;;;;;12.18;7.22;;;;;;;;;;4926940;28;20070;-86
2021/12/11 13:29:42;;;;;;;11.48;7.20;;;;;;;;;;4963714;28;20059;-85
2021/12/11 13:32:17;;;;;;;;;;;;;;;;;;4959880;28;20704;-83
2021/12/11 13:34:49;;;;;;;7.57;5.53;;;;;;;;;;4941867;28;19986;-85
2021/12/11 13:37:18;;;;;;;8.50;5.60;;;;;;;;;;4958268;28;20019;-85
2021/12/11 13:39:48;;;;;;;11.63;6.55;;;;;;;;;;4966675;28;20019;-88
2021/12/11 13:42:20;;;;;;;10.90;6.75;;;;;;;;;;4964211;28;20031;-85
2021/12/11 13:44:50;;;;;;;8.65;6.25;;;;;;;;;;4946677;28;20024;-87
2021/12/11 13:47:22;;;;;;;8.95;6.43;;;;;;;;;;4954675;28;20042;-85
2021/12/11 13:49:50;;;;;;;7.40;5.67;;;;;;;;;;4963440;28;20034;-84
2021/12/11 13:52:16;;;;;;;7.38;4.65;;;;;;;;;;4953425;29;20027;-85
2021/12/11 13:54:42;;;;;;;7.53;5.00;;;;;;;;;;4964008;28;20087;-88
2021/12/11 13:57:23;;;;;;;11.20;7.57;;;;;;;;;;4954248;28;20027;-87
2021/12/11 13:59:50;;;;;;;10.77;6.90;;;;;;;;;;4958904;28;20031;-86
2021/12/11 14:02:17;;;;;;;12.13;8.23;;;;;;;;;;4967718;28;20433;-86
2021/12/11 14:04:44;;;;;;;10.43;7.40;;;;;;;;;;4945460;28;20035;-90
2021/12/11 14:07:12;;;;;;;10.63;7.10;;;;;;;;;;4953592;28;20027;-86
2021/12/11 14:09:42;;;;;;;11.20;6.60;;;;;;;;;;4953997;28;20034;-88
2021/12/11 14:12:09;;;;;;;8.52;6.40;;;;;;;;;;4960191;28;20027;-89
2021/12/11 14:14:37;;;;;;;9.48;6.70;;;;;;;;;;4963615;28;20034;-86
2021/12/11 14:17:03;;;;;;;10.25;6.63;;;;;;;;;;4958726;28;20097;-85
2021/12/11 14:19:28;;;;;;;8.98;6.07;;;;;;;;;;4952823;29;20051;-86
2021/12/11 14:22:00;;;;;;;7.78;6.00;;;;;;;;;;4940137;29;20121;-88
2021/12/11 14:24:26;;;;;;;8.20;6.18;;;;;;;;;;4952792;28;20408;-86
2021/12/11 14:26:52;;;;;;;9.57;6.10;;;;;;;;;;4970306;28;20473;-86
2021/12/11 14:29:17;;;;;;;8.98;6.30;;;;;;;;;;4960880;28;20160;-86
2021/12/11 14:31:45;;;;;;;8.63;6.32;;;;;;;;;;4963561;28;20023;-86
2021/12/11 14:34:11;;;;;;;8.10;6.13;;;;;;;;;;4961189;28;20026;-84
2021/12/11 14:36:37;;;;;;;8.07;6.03;;;;;;;;;;4951486;28;20035;-87
2021/12/11 14:39:10;;;;;;;9.25;6.25;;;;;;;;;;4963893;28;20473;-85
2021/12/11 14:41:39;;;;;;;10.20;6.10;;;;;;;;;;4959906;28;20027;-86
2021/12/11 14:44:13;;;;;;;9.23;6.55;;;;;;;;;;4956052;28;20067;-84
2021/12/11 14:46:39;;;;;;;10.75;6.43;;;;;;;;;;4954094;28;20030;-84
2021/12/11 14:49:05;;;;;;;8.50;6.00;;;;;;;;;;4955400;28;20023;-86
2021/12/11 14:51:32;;;;;;;9.23;6.50;;;;;;;;;;4961447;28;20079;-85
2021/12/11 14:53:59;;;;;;;29.48;14.27;;;;;;;;;;4968301;28;20031;-86
2021/12/11 14:56:30;;;;;;;16.67;9.80;;;;;;;;;;4971068;28;20054;-85
2021/12/11 14:59:00;;;;;;;29.67;14.80;;;;;;;;;;4945413;28;20031;-86
2021/12/11 15:01:33;;;;;;;27.95;13.77;;;;;;;;;;4953324;28;20038;-85
2021/12/11 15:04:00;;;;;;;27.42;14.57;;;;;;;;;;4958243;28;20031;-86
2021/12/11 15:06:26;;;;;;;17.02;10.52;;;;;;;;;;4962402;28;20030;-86
2021/12/11 15:08:52;;;;;;;12.63;6.95;;;;;;;;;;4938028;28;20027;-86
2021/12/11 15:11:22;;;;;;;14.07;8.82;;;;;;;;;;4951647;28;20027;-85
2021/12/11 15:13:49;;;;;;;15.65;10.43;;;;;;;;;;4956133;28;20027;-85
2021/12/11 15:16:17;;;;;;;16.25;10.20;;;;;;;;;;4951884;28;20500;-86
2021/12/11 15:18:42;;;;;;;17.02;10.55;;;;;;;;;;4952476;29;20031;-87
2021/12/11 15:21:12;;;;;;;18.63;10.13;;;;;;;;;;4953764;28;20033;-85
2021/12/11 15:23:38;;;;;;;13.07;7.68;;;;;;;;;;4953652;28;20477;-87
2021/12/11 15:26:05;;;;;;;12.75;7.28;;;;;;;;;;4957326;28;20146;-87